createdAt,value
2022-11-25T00:01:32.465Z,4.80
2022-11-25T00:04:02.997Z,4.80
2022-11-25T00:06:33.046Z,4.80
2022-11-25T00:09:04.042Z,4.80
2022-11-25T00:11:32.642Z,4.80
2022-11-25T00:14:01.044Z,4.80
2022-11-25T00:16:29.426Z,4.80
2022-11-25T00:19:00.948Z,4.90
2022-11-25T00:21:31.221Z,4.90
2022-11-25T00:24:01.303Z,4.90
2022-11-25T00:26:32.582Z,4.90
2022-11-25T00:29:02.931Z,5.00
2022-11-25T00:31:33.832Z,5.00
2022-11-25T00:34:03.900Z,5.00
2022-11-25T00:36:33.514Z,4.90
2022-11-25T00:39:04.961Z,4.90
2022-11-25T00:41:51.010Z,4.90
2022-11-25T00:44:40.767Z,4.80
2022-11-25T00:47:11.486Z,4.80
2022-11-25T00:49:42.941Z,4.70
2022-11-25T00:52:14.830Z,4.60
2022-11-25T00:54:45.166Z,4.60
2022-11-25T00:57:14.311Z,4.60
2022-11-25T00:59:42.840Z,4.50
2022-11-25T01:02:15.261Z,4.50
2022-11-25T01:04:47.696Z,4.50
2022-11-25T01:07:19.713Z,4.40
2022-11-25T01:09:49.098Z,4.30
2022-11-25T01:12:17.465Z,4.30
2022-11-25T01:14:45.828Z,4.20
2022-11-25T01:17:15.888Z,4.20
2022-11-25T01:19:44.340Z,4.20
2022-11-25T01:22:14.267Z,4.20
2022-11-25T01:24:44.286Z,4.20
2022-11-25T01:27:12.672Z,4.10
2022-11-25T01:29:43.064Z,4.10
2022-11-25T01:32:11.572Z,4.10
2022-11-25T01:34:40.387Z,4.10
2022-11-25T01:37:09.254Z,4.00
2022-11-25T01:39:39.853Z,4.00
2022-11-25T01:42:08.256Z,4.00
2022-11-25T01:44:40.247Z,3.90
2022-11-25T01:47:15.296Z,3.90
2022-11-25T01:49:47.991Z,3.80
2022-11-25T01:52:20.842Z,3.80
2022-11-25T01:54:55.292Z,3.80
2022-11-25T01:57:29.177Z,3.80
2022-11-25T02:00:01.764Z,3.70
2022-11-25T02:02:33.313Z,3.70
2022-11-25T02:05:04.670Z,3.70
2022-11-25T02:07:36.272Z,3.70
2022-11-25T02:10:09.170Z,3.70
2022-11-25T02:12:40.455Z,3.70
2022-11-25T02:15:10.005Z,3.70
2022-11-25T02:17:39.728Z,3.60
2022-11-25T02:20:11.273Z,3.60
2022-11-25T02:22:52.621Z,3.60
2022-11-25T02:25:25.549Z,3.60
2022-11-25T02:27:58.666Z,3.50
2022-11-25T02:30:27.232Z,3.50
2022-11-25T02:32:55.793Z,3.40
2022-11-25T02:35:27.452Z,3.40
2022-11-25T02:37:59.598Z,3.40
2022-11-25T02:40:30.148Z,3.40
2022-11-25T02:43:00.760Z,3.40
2022-11-25T02:45:38.522Z,3.40
2022-11-25T02:48:07.085Z,3.30
2022-11-25T02:50:35.477Z,3.30
2022-11-25T02:53:03.851Z,3.30
2022-11-25T02:55:33.758Z,3.30
2022-11-25T02:58:02.114Z,3.30
2022-11-25T03:00:30.510Z,3.20
2022-11-25T03:02:58.981Z,3.20
2022-11-25T03:05:27.596Z,3.20
2022-11-25T03:07:56.001Z,3.20
2022-11-25T03:10:26.640Z,3.20
2022-11-25T03:12:56.396Z,3.20
2022-11-25T03:15:25.074Z,3.20
2022-11-25T03:17:54.042Z,3.20
2022-11-25T03:20:23.104Z,3.10
2022-11-25T03:22:51.925Z,3.00
2022-11-25T03:25:20.551Z,3.00
2022-11-25T03:27:51.545Z,2.90
2022-11-25T03:30:24.532Z,2.80
2022-11-25T03:32:55.924Z,2.80
2022-11-25T03:35:26.566Z,2.70
2022-11-25T03:37:55.151Z,2.70
2022-11-25T03:40:23.586Z,2.60
2022-11-25T03:42:52.287Z,2.60
2022-11-25T03:45:22.548Z,2.50
2022-11-25T03:47:51.539Z,2.50
2022-11-25T03:50:20.071Z,2.40
2022-11-25T03:52:49.461Z,2.30
2022-11-25T03:55:20.731Z,2.30
2022-11-25T03:57:50.687Z,2.20
2022-11-25T04:00:20.117Z,2.20
2022-11-25T04:03:03.192Z,2.20
2022-11-25T04:05:33.845Z,2.20
2022-11-25T04:08:07.411Z,2.20
2022-11-25T04:10:37.260Z,2.20
2022-11-25T04:13:06.294Z,2.10
2022-11-25T04:15:38.615Z,2.10
2022-11-25T04:18:09.413Z,2.20
2022-11-25T04:20:37.903Z,2.20
2022-11-25T04:23:09.501Z,2.20
2022-11-25T04:25:45.088Z,2.30
2022-11-25T04:28:20.495Z,2.30
2022-11-25T04:30:49.319Z,2.30
2022-11-25T04:33:20.469Z,2.30
2022-11-25T04:35:49.759Z,2.30
2022-11-25T04:38:18.547Z,2.40
2022-11-25T04:40:47.334Z,2.40
2022-11-25T04:43:19.116Z,2.50
2022-11-25T04:48:43.416Z,2.50
2022-11-25T04:51:11.814Z,2.50
2022-11-25T04:53:41.064Z,2.50
2022-11-25T04:56:12.293Z,2.60
2022-11-25T04:59:02.121Z,2.60
2022-11-25T05:01:31.543Z,2.60
2022-11-25T05:04:12.513Z,2.60
2022-11-25T05:06:40.858Z,2.60
2022-11-25T05:09:11.227Z,2.60
2022-11-25T05:11:41.733Z,2.60
2022-11-25T05:14:10.643Z,2.60
2022-11-25T05:16:40.266Z,2.60
2022-11-25T05:19:12.034Z,2.60
2022-11-25T05:21:40.415Z,2.60
2022-11-25T05:24:09.051Z,2.50
2022-11-25T05:26:37.803Z,2.50
2022-11-25T05:29:07.046Z,2.50
2022-11-25T05:31:36.128Z,2.40
2022-11-25T05:34:05.771Z,2.30
2022-11-25T05:36:35.525Z,2.30
2022-11-25T05:39:05.248Z,2.30
2022-11-25T05:42:08.552Z,2.30
2022-11-25T05:44:37.181Z,2.20
2022-11-25T05:47:05.916Z,2.30
2022-11-25T05:49:34.654Z,2.30
2022-11-25T05:52:04.802Z,2.30
2022-11-25T05:54:38.842Z,2.30
2022-11-25T05:57:08.387Z,2.30
2022-11-25T05:59:52.889Z,2.30
2022-11-25T06:02:39.780Z,2.30
2022-11-25T06:05:08.878Z,2.30
2022-11-25T06:07:38.997Z,2.30
2022-11-25T06:10:09.377Z,2.30
2022-11-25T06:12:40.195Z,2.20
2022-11-25T06:15:09.794Z,2.20
2022-11-25T06:17:40.168Z,2.10
2022-11-25T06:20:13.927Z,2.00
2022-11-25T06:22:43.948Z,2.00
2022-11-25T06:25:12.394Z,2.00
2022-11-25T06:28:10.659Z,1.90
2022-11-25T06:30:32.370Z,1.90
2022-11-25T06:33:17.771Z,1.80
2022-11-25T06:35:47.973Z,1.80
2022-11-25T06:38:17.800Z,1.80
2022-11-25T06:40:46.890Z,1.80
2022-11-25T06:43:15.290Z,1.90
2022-11-25T06:45:43.630Z,1.80
2022-11-25T06:48:12.058Z,1.70
2022-11-25T06:50:40.427Z,1.70
2022-11-25T06:53:08.914Z,1.70
2022-11-25T06:55:38.718Z,1.60
2022-11-25T06:58:28.270Z,1.60
2022-11-25T07:00:55.559Z,1.60
2022-11-25T07:03:24.127Z,1.60
2022-11-25T07:05:52.490Z,1.60
2022-11-25T07:08:22.535Z,1.70
2022-11-25T07:10:52.486Z,1.80
2022-11-25T07:13:21.262Z,1.80
2022-11-25T07:15:49.747Z,1.90
2022-11-25T07:18:18.434Z,1.90
2022-11-25T07:20:48.014Z,2.00
2022-11-25T07:23:16.424Z,2.10
2022-11-25T07:25:44.764Z,2.30
2022-11-25T07:28:14.491Z,2.60
2022-11-25T07:33:32.263Z,2.70
2022-11-25T07:36:03.611Z,2.70
2022-11-25T07:38:32.198Z,2.70
2022-11-25T07:41:06.171Z,2.70
2022-11-25T07:43:36.000Z,2.70
2022-11-25T07:46:12.724Z,2.80
2022-11-25T07:48:42.298Z,2.80
2022-11-25T07:51:23.247Z,2.80
2022-11-25T07:53:52.305Z,2.80
2022-11-25T07:56:21.202Z,2.80
2022-11-25T07:58:51.435Z,2.80
2022-11-25T08:01:20.981Z,2.90
2022-11-25T08:03:50.892Z,2.90
2022-11-25T08:06:21.829Z,2.90
2022-11-25T08:08:52.906Z,3.00
2022-11-25T08:11:23.812Z,3.10
2022-11-25T08:13:54.016Z,3.10
2022-11-25T08:16:27.266Z,3.40
2022-11-25T08:18:56.172Z,3.60
2022-11-25T08:21:25.332Z,4.00
2022-11-25T08:23:54.235Z,4.30
2022-11-25T08:26:25.830Z,4.60
2022-11-25T08:28:56.069Z,4.70
2022-11-25T08:31:27.356Z,4.70
2022-11-25T08:33:56.325Z,4.80
2022-11-25T08:36:25.582Z,4.90
2022-11-25T08:38:57.598Z,5.00
2022-11-25T08:41:28.820Z,5.10
2022-11-25T08:44:00.003Z,5.20
2022-11-25T08:46:30.564Z,5.20
2022-11-25T08:48:59.058Z,5.30
2022-11-25T08:51:29.960Z,5.40
2022-11-25T08:53:58.825Z,5.50
2022-11-25T08:56:27.926Z,5.80
2022-11-25T08:58:58.088Z,6.30
2022-11-25T09:01:26.741Z,6.80
2022-11-25T09:03:57.673Z,7.00
2022-11-25T09:06:27.454Z,6.90
2022-11-25T09:08:57.885Z,6.90
2022-11-25T09:11:27.183Z,7.40
2022-11-25T09:13:56.171Z,8.50
2022-11-25T09:16:27.086Z,9.60
2022-11-25T09:18:56.393Z,10.20
2022-11-25T09:21:27.507Z,10.70
2022-11-25T09:23:56.648Z,11.00
2022-11-25T09:26:26.576Z,10.60
2022-11-25T09:28:56.731Z,10.20
2022-11-25T09:31:27.115Z,9.60
2022-11-25T09:33:55.445Z,9.30
2022-11-25T09:36:24.884Z,8.90
2022-11-25T09:38:53.610Z,8.90
2022-11-25T09:42:06.187Z,9.40
2022-11-25T09:45:05.278Z,9.90
2022-11-25T09:47:47.191Z,10.50
2022-11-25T09:50:30.956Z,11.20
2022-11-25T09:53:07.948Z,11.80
2022-11-25T09:55:41.325Z,12.50
2022-11-25T09:58:21.714Z,13.00
2022-11-25T10:00:52.110Z,13.50
2022-11-25T10:03:33.726Z,14.00
2022-11-25T10:06:06.347Z,14.20
2022-11-25T10:08:41.646Z,14.30
2022-11-25T10:11:23.767Z,13.70
2022-11-25T10:13:59.591Z,13.80
2022-11-25T10:16:36.777Z,13.80
2022-11-25T10:19:18.058Z,13.90
2022-11-25T10:21:46.996Z,13.90
2022-11-25T10:24:17.823Z,13.90
2022-11-25T10:26:50.310Z,13.70
2022-11-25T10:29:25.682Z,13.30
2022-11-25T10:32:01.696Z,12.90
2022-11-25T10:34:39.289Z,12.40
2022-11-25T10:37:14.074Z,11.90
2022-11-25T10:39:42.403Z,11.70
2022-11-25T10:42:19.568Z,11.70
2022-11-25T10:44:47.872Z,11.40
2022-11-25T10:47:27.282Z,10.90
2022-11-25T10:50:12.615Z,10.70
2022-11-25T10:52:45.500Z,10.70
2022-11-25T10:55:15.683Z,10.50
2022-11-25T10:57:44.323Z,10.50
2022-11-25T11:00:31.322Z,10.30
2022-11-25T11:03:02.568Z,10.10
2022-11-25T11:05:32.933Z,9.90
2022-11-25T11:08:18.822Z,9.60
2022-11-25T11:10:50.576Z,9.30
2022-11-25T11:13:27.371Z,9.00
2022-11-25T11:15:56.046Z,8.80
2022-11-25T11:18:29.908Z,8.60
2022-11-25T11:21:01.797Z,8.40
2022-11-25T11:23:30.810Z,8.30
2022-11-25T11:26:02.230Z,8.20
2022-11-25T11:28:40.555Z,8.10
2022-11-25T11:31:19.204Z,8.10
2022-11-25T11:33:59.396Z,8.00
2022-11-25T11:36:39.732Z,8.00
2022-11-25T11:39:22.809Z,8.10
2022-11-25T11:41:56.598Z,8.20
2022-11-25T11:44:35.801Z,8.20
2022-11-25T11:47:19.922Z,8.30
2022-11-25T11:50:26.184Z,8.40
2022-11-25T11:53:03.221Z,8.50
2022-11-25T11:56:00.237Z,8.60
2022-11-25T11:58:47.502Z,8.70
2022-11-25T12:01:34.034Z,8.80
2022-11-25T12:04:09.728Z,9.00
2022-11-25T12:06:39.793Z,9.20
2022-11-25T12:09:13.803Z,9.30
2022-11-25T12:11:46.070Z,9.40
2022-11-25T12:14:27.189Z,9.30
2022-11-25T12:16:59.560Z,9.20
2022-11-25T12:19:37.869Z,9.00
2022-11-25T12:22:15.108Z,8.80
2022-11-25T12:24:52.001Z,8.70
2022-11-25T12:27:24.182Z,8.60
2022-11-25T12:29:58.442Z,8.60
2022-11-25T12:32:47.379Z,8.40
2022-11-25T12:35:22.164Z,8.30
2022-11-25T12:37:58.549Z,8.30
2022-11-25T12:40:33.433Z,8.30
2022-11-25T12:43:12.153Z,8.20
2022-11-25T12:45:42.287Z,8.20
2022-11-25T12:48:16.193Z,8.20
2022-11-25T12:50:56.485Z,8.10
2022-11-25T12:53:34.460Z,8.00
2022-11-25T12:56:08.124Z,8.10
2022-11-25T12:58:49.581Z,8.10
2022-11-25T13:01:34.308Z,8.10
2022-11-25T13:04:18.631Z,8.10
2022-11-25T13:07:11.599Z,8.10
2022-11-25T13:10:15.850Z,8.10
2022-11-25T13:12:59.294Z,8.00
2022-11-25T13:15:31.282Z,8.10
2022-11-25T13:18:03.080Z,8.10
2022-11-25T13:20:50.204Z,8.20
2022-11-25T13:23:30.338Z,8.30
2022-11-25T13:26:46.758Z,8.30
2022-11-25T13:30:04.172Z,8.40
2022-11-25T13:32:40.666Z,8.40
2022-11-25T13:35:48.050Z,8.40
2022-11-25T13:39:00.919Z,8.40
2022-11-25T13:41:46.783Z,8.30
2022-11-25T13:44:25.377Z,8.30
2022-11-25T13:46:55.665Z,8.30
2022-11-25T13:49:32.631Z,8.20
2022-11-25T13:52:04.255Z,8.20
2022-11-25T13:54:40.221Z,8.20
2022-11-25T13:57:27.591Z,8.20
2022-11-25T13:59:59.032Z,8.10
2022-11-25T14:02:46.020Z,8.00
2022-11-25T14:05:40.567Z,8.00
2022-11-25T14:08:21.402Z,8.00
2022-11-25T14:11:00.436Z,7.90
2022-11-25T14:13:50.994Z,7.90
2022-11-25T14:16:40.421Z,7.90
2022-11-25T14:22:45.065Z,7.80
2022-11-25T14:25:18.013Z,7.70
2022-11-25T14:27:48.647Z,7.60
2022-11-25T14:30:18.779Z,7.60
2022-11-25T14:32:56.016Z,7.60
2022-11-25T14:35:29.389Z,7.50
2022-11-25T14:38:04.385Z,7.50
2022-11-25T14:40:37.710Z,7.40
2022-11-25T14:43:09.401Z,7.40
2022-11-25T14:45:37.986Z,7.30
2022-11-25T14:48:17.161Z,7.30
2022-11-25T14:50:56.753Z,7.30
2022-11-25T14:53:26.766Z,7.30
2022-11-25T14:55:57.873Z,7.20
2022-11-25T14:58:26.282Z,7.30
2022-11-25T15:01:01.131Z,7.30
2022-11-25T15:03:30.124Z,7.20
2022-11-25T15:06:04.779Z,7.20
2022-11-25T15:08:42.549Z,7.20
2022-11-25T15:11:15.469Z,7.20
2022-11-25T15:13:46.065Z,7.10
2022-11-25T15:16:17.169Z,7.10
2022-11-25T15:18:50.176Z,7.10
2022-11-25T15:21:23.058Z,7.10
2022-11-25T15:23:52.915Z,7.10
2022-11-25T15:26:24.192Z,7.10
2022-11-25T15:28:57.773Z,7.10
2022-11-25T15:31:29.825Z,7.10
2022-11-25T15:34:00.681Z,7.00
2022-11-25T15:36:29.302Z,7.00
2022-11-25T15:39:15.379Z,7.00
2022-11-25T15:41:46.389Z,7.00
2022-11-25T15:44:27.462Z,7.00
2022-11-25T15:47:03.066Z,7.00
2022-11-25T15:49:32.276Z,7.00
2022-11-25T15:52:04.827Z,6.90
2022-11-25T15:54:40.911Z,6.90
2022-11-25T15:57:18.054Z,6.80
2022-11-25T15:59:51.720Z,6.80
2022-11-25T16:02:35.786Z,6.70
2022-11-25T16:05:34.013Z,6.70
2022-11-25T16:08:35.015Z,6.60
2022-11-25T16:11:19.527Z,6.60
2022-11-25T16:13:48.769Z,6.60
2022-11-25T16:16:25.974Z,6.60
2022-11-25T16:19:20.523Z,6.50
2022-11-25T16:21:54.241Z,6.40
2022-11-25T16:24:48.653Z,6.50
2022-11-25T16:27:28.124Z,6.50
2022-11-25T16:29:59.118Z,6.50
2022-11-25T16:32:30.417Z,6.40
2022-11-25T16:35:11.230Z,6.40
2022-11-25T16:37:42.754Z,6.40
2022-11-25T16:40:15.254Z,6.40
2022-11-25T16:42:48.485Z,6.40
2022-11-25T16:45:20.989Z,6.40
2022-11-25T16:47:49.366Z,6.40
2022-11-25T16:50:19.535Z,6.40
2022-11-25T16:52:48.056Z,6.30
2022-11-25T16:55:18.511Z,6.30
2022-11-25T16:57:48.547Z,6.40
2022-11-25T17:00:18.382Z,6.30
2022-11-25T17:02:46.862Z,6.30
2022-11-25T17:05:18.747Z,6.30
2022-11-25T17:07:47.322Z,6.30
2022-11-25T17:10:15.997Z,6.30
2022-11-25T17:12:45.719Z,6.30
2022-11-25T17:15:18.221Z,6.30
2022-11-25T17:17:48.513Z,6.30
2022-11-25T17:20:18.338Z,6.30
2022-11-25T17:22:46.857Z,6.20
2022-11-25T17:25:15.447Z,6.20
2022-11-25T17:27:46.140Z,6.20
2022-11-25T17:30:19.841Z,6.20
2022-11-25T17:32:49.208Z,6.20
2022-11-25T17:35:19.782Z,6.10
2022-11-25T17:37:49.092Z,6.10
2022-11-25T17:40:17.893Z,6.10
2022-11-25T17:42:48.405Z,6.10
2022-11-25T17:45:20.157Z,6.10
2022-11-25T17:47:49.226Z,6.10
2022-11-25T17:50:20.335Z,6.10
2022-11-25T17:52:48.942Z,6.10
2022-11-25T17:55:19.749Z,6.10
2022-11-25T17:57:48.723Z,6.10
2022-11-25T18:00:22.422Z,6.10
2022-11-25T18:02:51.738Z,6.10
2022-11-25T18:05:23.160Z,6.20
2022-11-25T18:07:52.067Z,6.10
2022-11-25T18:10:25.396Z,6.10
2022-11-25T18:12:56.158Z,6.20
2022-11-25T18:15:29.578Z,6.10
2022-11-25T18:18:03.641Z,6.10
2022-11-25T18:20:33.134Z,6.10
2022-11-25T18:23:02.328Z,6.10
2022-11-25T18:25:33.085Z,6.10
2022-11-25T18:28:03.115Z,6.20
2022-11-25T18:30:35.509Z,6.20
2022-11-25T18:33:06.273Z,6.20
2022-11-25T18:35:36.697Z,6.20
2022-11-25T18:38:05.853Z,6.20
2022-11-25T18:40:35.293Z,6.20
2022-11-25T18:43:05.693Z,6.20
2022-11-25T18:45:38.584Z,6.20
2022-11-25T18:48:14.921Z,6.20
2022-11-25T18:50:43.950Z,6.20
2022-11-25T18:53:12.700Z,6.20
2022-11-25T18:55:41.676Z,6.20
2022-11-25T18:58:15.640Z,6.20
2022-11-25T19:00:48.535Z,6.20
2022-11-25T19:03:20.620Z,6.10
2022-11-25T19:05:50.044Z,6.10
2022-11-25T19:08:19.618Z,6.10
2022-11-25T19:10:49.566Z,6.20
2022-11-25T19:13:22.510Z,6.20
2022-11-25T19:15:52.435Z,6.20
2022-11-25T19:18:25.534Z,6.20
2022-11-25T19:20:54.211Z,6.30
2022-11-25T19:23:25.524Z,6.20
2022-11-25T19:25:55.334Z,6.30
2022-11-25T19:28:24.684Z,6.30
2022-11-25T19:30:58.997Z,6.30
2022-11-25T19:33:31.607Z,6.30
2022-11-25T19:36:00.230Z,6.30
2022-11-25T19:38:29.807Z,6.30
2022-11-25T19:40:58.908Z,6.30
2022-11-25T19:43:28.173Z,6.30
2022-11-25T19:45:58.715Z,6.30
2022-11-25T19:48:29.651Z,6.30
2022-11-25T19:51:02.223Z,6.20
2022-11-25T19:53:34.047Z,6.20
2022-11-25T19:56:11.518Z,6.20
2022-11-25T19:58:44.426Z,6.20
2022-11-25T20:01:17.061Z,6.20
2022-11-25T20:03:48.031Z,6.20
2022-11-25T20:06:18.132Z,6.20
2022-11-25T20:08:47.385Z,6.30
2022-11-25T20:11:17.670Z,6.30
2022-11-25T20:13:48.125Z,6.30
2022-11-25T20:16:21.155Z,6.30
2022-11-25T20:18:50.435Z,6.30
2022-11-25T20:21:27.113Z,6.30
2022-11-25T20:23:56.166Z,6.30
2022-11-25T20:26:30.002Z,6.30
2022-11-25T20:28:58.469Z,6.30
2022-11-25T20:31:30.702Z,6.30
2022-11-25T20:33:59.474Z,6.30
2022-11-25T20:36:32.770Z,6.30
2022-11-25T20:39:02.444Z,6.30
2022-11-25T20:41:31.557Z,6.30
2022-11-25T20:44:00.612Z,6.30
2022-11-25T20:46:30.852Z,6.30
2022-11-25T20:49:01.712Z,6.30
2022-11-25T20:51:30.154Z,6.30
2022-11-25T20:54:01.270Z,6.30
2022-11-25T20:56:30.614Z,6.30
2022-11-25T20:58:59.091Z,6.30
2022-11-25T21:01:27.539Z,6.30
2022-11-25T21:03:57.373Z,6.30
2022-11-25T21:06:29.028Z,6.30
2022-11-25T21:08:59.750Z,6.30
2022-11-25T21:11:32.893Z,6.30
2022-11-25T21:14:01.339Z,6.30
2022-11-25T21:16:29.801Z,6.30
2022-11-25T21:18:59.660Z,6.30
2022-11-25T21:21:32.579Z,6.30
2022-11-25T21:24:07.002Z,6.30
2022-11-25T21:26:36.028Z,6.30
2022-11-25T21:29:04.515Z,6.30
2022-11-25T21:31:33.138Z,6.40
2022-11-25T21:34:04.446Z,6.30
2022-11-25T21:36:32.947Z,6.30
2022-11-25T21:39:05.678Z,6.40
2022-11-25T21:41:34.354Z,6.30
2022-11-25T21:44:05.351Z,6.40
2022-11-25T21:46:33.869Z,6.30
2022-11-25T21:49:09.916Z,6.30
2022-11-25T21:51:38.278Z,6.40
2022-11-25T21:54:07.494Z,6.40
2022-11-25T21:56:35.965Z,6.40
2022-11-25T21:59:06.829Z,6.40
2022-11-25T22:01:35.226Z,6.30
2022-11-25T22:04:05.051Z,6.40
2022-11-25T22:06:34.694Z,6.40
2022-11-25T22:09:03.178Z,6.40
2022-11-25T22:11:33.160Z,6.40
2022-11-25T22:14:05.827Z,6.40
2022-11-25T22:16:36.304Z,6.40
2022-11-25T22:19:06.639Z,6.40
2022-11-25T22:21:34.965Z,6.40
2022-11-25T22:24:03.493Z,6.40
2022-11-25T22:26:34.114Z,6.50
2022-11-25T22:29:03.554Z,6.50
2022-11-25T22:31:31.962Z,6.50
2022-11-25T22:34:00.372Z,6.50
2022-11-25T22:36:35.417Z,6.40
2022-11-25T22:39:15.251Z,6.40
2022-11-25T22:41:45.899Z,6.40
2022-11-25T22:44:21.789Z,6.40
2022-11-25T22:46:51.026Z,6.30
2022-11-25T22:49:36.911Z,6.30
2022-11-25T22:52:08.614Z,6.30
2022-11-25T22:54:37.160Z,6.30
2022-11-25T22:57:05.639Z,6.30
2022-11-25T22:59:34.059Z,6.30
2022-11-25T23:02:02.590Z,6.30
2022-11-25T23:04:31.001Z,6.30
2022-11-25T23:06:59.504Z,6.30
2022-11-25T23:09:29.594Z,6.30
2022-11-25T23:11:57.919Z,6.30
2022-11-25T23:14:26.504Z,6.30
2022-11-25T23:16:55.114Z,6.30
2022-11-25T23:19:23.749Z,6.30
2022-11-25T23:21:52.072Z,6.20
2022-11-25T23:24:20.475Z,6.20
2022-11-25T23:26:50.340Z,6.20
2022-11-25T23:29:18.815Z,6.20
2022-11-25T23:31:47.214Z,6.20
2022-11-25T23:34:16.082Z,6.20
2022-11-25T23:36:46.698Z,6.20
2022-11-25T23:39:20.882Z,6.20
2022-11-25T23:41:51.292Z,6.20
2022-11-25T23:44:24.604Z,6.20
2022-11-25T23:46:54.239Z,6.20
2022-11-25T23:49:25.820Z,6.30
2022-11-25T23:52:01.097Z,6.30
2022-11-25T23:54:40.414Z,6.20
2022-11-25T23:57:15.299Z,6.20
2022-11-25T23:59:44.079Z,6.20
